Time;durP1;ratioP1;P1;durP2;ratioP2;P2;SDS_P1;SDS_P2;PMS_P1;PMS_P2;Temp;Humidity;BMP_temperature;BMP_pressure;BME280_temperature;BME280_humidity;BME280_pressure;Samples;Min_cycle;Max_cycle;Signal;HPM_P1;HPM_P2
2021/04/14 00:01:32;;;;;;;0.37;0.37;;;;;;;;;;5068902;28;20929;-57
2021/04/14 00:03:59;;;;;;;0.40;0.40;;;;;;;;;;5069907;28;20180;-58
2021/04/14 00:06:25;;;;;;;0.40;0.33;;;;;;;;;;5069788;28;20656;-57
2021/04/14 00:08:52;;;;;;;0.17;0.17;;;;;;;;;;5066338;28;20196;-57
2021/04/14 00:11:20;;;;;;;0.43;0.40;;;;;;;;;;5072839;28;20264;-58
2021/04/14 00:13:47;;;;;;;0.00;0.00;;;;;;;;;;5070607;28;20325;-57
2021/04/14 00:16:25;;;;;;;0.30;0.30;;;;;;;;;;5067688;28;20189;-56
2021/04/14 00:18:58;;;;;;;0.00;0.00;;;;;;;;;;5069073;28;20175;-55
2021/04/14 00:21:25;;;;;;;1.10;1.10;;;;;;;;;;5073440;28;20278;-57
2021/04/14 00:23:54;;;;;;;0.00;0.00;;;;;;;;;;5072022;28;20186;-54
2021/04/14 00:26:21;;;;;;;0.00;0.00;;;;;;;;;;5068215;28;20267;-57
2021/04/14 00:28:49;;;;;;;0.00;0.00;;;;;;;;;;5068667;28;20199;-56
2021/04/14 00:31:15;;;;;;;0.70;0.70;;;;;;;;;;5066908;28;20205;-55
2021/04/14 00:33:43;;;;;;;0.27;0.27;;;;;;;;;;5072216;28;20214;-57
2021/04/14 00:36:10;;;;;;;0.33;0.33;;;;;;;;;;5078758;28;20250;-55
2021/04/14 00:38:36;;;;;;;1.63;1.03;;;;;;;;;;5072328;28;20182;-58
2021/04/14 00:41:05;;;;;;;0.50;0.50;;;;;;;;;;5068052;28;20232;-54
2021/04/14 00:43:35;;;;;;;0.20;0.17;;;;;;;;;;5070082;28;20516;-56
2021/04/14 00:46:02;;;;;;;0.47;0.47;;;;;;;;;;5071694;28;20189;-57
2021/04/14 00:48:28;;;;;;;0.03;0.03;;;;;;;;;;5071590;28;20246;-61
2021/04/14 00:50:56;;;;;;;10.27;0.53;;;;;;;;;;5069239;28;20178;-57
2021/04/14 00:53:22;;;;;;;0.40;0.40;;;;;;;;;;5071761;28;20715;-61
2021/04/14 00:55:50;;;;;;;0.30;0.27;;;;;;;;;;5069333;28;20179;-58
2021/04/14 00:58:16;;;;;;;1.93;1.40;;;;;;;;;;5070683;27;20182;-53
2021/04/14 01:00:48;;;;;;;7.13;3.60;;;;;;;;;;5069278;28;20192;-60
2021/04/14 01:03:19;;;;;;;3.20;1.60;;;;;;;;;;5071652;28;20183;-53
2021/04/14 01:05:47;;;;;;;0.10;0.10;;;;;;;;;;5071734;28;20175;-56
2021/04/14 01:08:14;;;;;;;0.00;0.00;;;;;;;;;;5071034;28;20245;-58
2021/04/14 01:10:40;;;;;;;0.00;0.00;;;;;;;;;;5067765;28;20227;-57
2021/04/14 01:13:07;;;;;;;0.00;0.00;;;;;;;;;;5078134;28;20231;-59
2021/04/14 01:15:39;;;;;;;0.00;0.00;;;;;;;;;;5079204;28;20228;-58
2021/04/14 01:18:07;;;;;;;0.10;0.10;;;;;;;;;;5066629;28;20186;-56
2021/04/14 01:20:38;;;;;;;0.00;0.00;;;;;;;;;;5067421;28;20185;-55
2021/04/14 01:23:06;;;;;;;1.20;0.97;;;;;;;;;;5069905;28;20196;-57
2021/04/14 01:25:35;;;;;;;0.60;0.60;;;;;;;;;;5063777;28;20193;-58
2021/04/14 01:28:06;;;;;;;1.50;1.47;;;;;;;;;;5067120;28;20690;-60
2021/04/14 01:30:33;;;;;;;0.23;0.23;;;;;;;;;;5070402;28;20177;-59
2021/04/14 01:33:00;;;;;;;0.60;0.60;;;;;;;;;;5073689;28;20174;-57
2021/04/14 01:35:28;;;;;;;3.50;2.40;;;;;;;;;;5066207;28;20194;-57
2021/04/14 01:37:57;;;;;;;0.30;0.30;;;;;;;;;;5065886;28;21045;-58
2021/04/14 01:40:24;;;;;;;2.07;1.17;;;;;;;;;;5067591;28;20189;-58
2021/04/14 01:42:51;;;;;;;0.73;0.73;;;;;;;;;;5075595;28;20175;-55
2021/04/14 01:45:19;;;;;;;0.10;0.10;;;;;;;;;;5066962;28;20198;-58
2021/04/14 01:47:45;;;;;;;0.33;0.33;;;;;;;;;;5066527;28;20584;-59
2021/04/14 01:50:12;;;;;;;0.00;0.00;;;;;;;;;;5071184;28;20250;-59
2021/04/14 01:52:39;;;;;;;0.77;0.57;;;;;;;;;;5067747;28;20195;-58
2021/04/14 01:55:06;;;;;;;0.23;0.23;;;;;;;;;;5077774;28;20669;-59
2021/04/14 01:57:33;;;;;;;0.97;0.80;;;;;;;;;;5070370;28;20936;-59
2021/04/14 02:00:00;;;;;;;0.00;0.00;;;;;;;;;;5065485;28;20576;-59
2021/04/14 02:02:26;;;;;;;0.00;0.00;;;;;;;;;;5069872;28;20186;-59
2021/04/14 02:04:53;;;;;;;0.27;0.27;;;;;;;;;;5064169;28;20288;-59
2021/04/14 02:07:20;;;;;;;0.27;0.27;;;;;;;;;;5067256;28;20905;-59
2021/04/14 02:09:46;;;;;;;1.13;1.07;;;;;;;;;;5073284;28;20186;-58
2021/04/14 02:12:14;;;;;;;0.20;0.20;;;;;;;;;;5069696;28;20932;-59
2021/04/14 02:14:41;;;;;;;3.07;2.30;;;;;;;;;;5069571;28;20226;-59
2021/04/14 02:17:10;;;;;;;0.73;0.63;;;;;;;;;;5068898;28;20255;-59
2021/04/14 02:19:41;;;;;;;0.00;0.00;;;;;;;;;;5073016;28;20742;-59
2021/04/14 02:22:07;;;;;;;0.00;0.00;;;;;;;;;;5068157;28;20471;-59
2021/04/14 02:24:34;;;;;;;0.00;0.00;;;;;;;;;;5072863;28;20190;-59
2021/04/14 02:27:00;;;;;;;1.80;0.83;;;;;;;;;;5078240;28;20557;-60
2021/04/14 02:29:27;;;;;;;0.00;0.00;;;;;;;;;;5070510;28;20197;-60
2021/04/14 02:31:53;;;;;;;0.07;0.07;;;;;;;;;;5070380;28;21624;-59
2021/04/14 02:34:20;;;;;;;0.43;0.37;;;;;;;;;;5067421;28;20213;-59
2021/04/14 02:36:48;;;;;;;0.30;0.30;;;;;;;;;;5067404;28;20227;-60
2021/04/14 02:39:15;;;;;;;0.00;0.00;;;;;;;;;;5068130;28;20249;-59
2021/04/14 02:41:42;;;;;;;0.47;0.47;;;;;;;;;;5073148;28;20812;-59
2021/04/14 02:44:08;;;;;;;0.93;0.80;;;;;;;;;;5076668;28;20197;-59
2021/04/14 02:46:35;;;;;;;0.40;0.40;;;;;;;;;;5073943;28;20205;-59
2021/04/14 02:49:01;;;;;;;0.73;0.73;;;;;;;;;;5074186;28;20285;-60
2021/04/14 02:51:28;;;;;;;0.00;0.00;;;;;;;;;;5076662;28;20194;-59
2021/04/14 13:38:47;;;;;;;4.83;2.00;;;;;;;;;;5036418;28;20646;-57
2021/04/14 13:41:20;;;;;;;1.63;1.40;;;;;;;;;;5014346;28;20187;-58
2021/04/14 13:43:51;;;;;;;2.10;1.37;;;;;;;;;;5014190;28;20177;-56
2021/04/14 13:46:21;;;;;;;2.00;1.90;;;;;;;;;;5013512;28;20195;-58
2021/04/14 14:09:35;;;;;;;8.63;2.80;;;;;;;;;;5155837;23;21321;-56
2021/04/14 14:12:02;;;;;;;5.07;2.70;;;;;;;;;;4994974;28;20566;-54
2021/04/14 14:14:30;;;;;;;2.80;1.67;;;;;;;;;;5007013;28;20191;-58
2021/04/14 14:17:03;;;;;;;3.80;2.20;;;;;;;;;;5010068;28;20221;-57
2021/04/14 14:19:35;;;;;;;4.80;2.23;;;;;;;;;;5006935;28;20188;-55
2021/04/14 14:22:02;;;;;;;5.67;5.37;;;;;;;;;;5008890;28;20193;-56
2021/04/14 14:24:36;;;;;;;2.83;2.00;;;;;;;;;;5014695;28;20351;-56
2021/04/14 14:27:04;;;;;;;3.17;2.63;;;;;;;;;;5017576;28;20204;-55
2021/04/14 14:29:34;;;;;;;2.10;2.00;;;;;;;;;;5013522;28;20349;-56
2021/04/14 14:32:03;;;;;;;1.77;1.67;;;;;;;;;;5010788;28;20197;-56
2021/04/14 14:34:32;;;;;;;0.43;0.43;;;;;;;;;;5006592;28;20181;-56
2021/04/14 14:37:07;;;;;;;2.67;0.93;;;;;;;;;;5001043;28;20219;-56
2021/04/14 14:39:44;;;;;;;1.53;1.10;;;;;;;;;;5012710;28;20649;-57
2021/04/14 14:42:14;;;;;;;1.47;1.37;;;;;;;;;;4996435;28;20233;-53
2021/04/14 14:44:49;;;;;;;1.60;1.23;;;;;;;;;;5005295;28;20314;-57
2021/04/14 14:47:17;;;;;;;1.60;1.50;;;;;;;;;;4998142;28;20194;-57
2021/04/14 14:49:52;;;;;;;8.00;3.67;;;;;;;;;;4998900;28;20217;-55
2021/04/14 14:52:21;;;;;;;2.77;2.40;;;;;;;;;;4995642;28;20190;-54
2021/04/14 14:54:49;;;;;;;2.07;1.70;;;;;;;;;;4986928;28;20841;-53
2021/04/14 14:57:26;;;;;;;6.27;2.77;;;;;;;;;;4994335;28;20228;-56
2021/04/14 15:00:01;;;;;;;1.10;1.00;;;;;;;;;;4993346;28;20527;-61
2021/04/14 15:02:38;;;;;;;7.83;1.93;;;;;;;;;;4990124;28;20178;-62
2021/04/14 15:05:05;;;;;;;3.00;2.53;;;;;;;;;;4983845;28;20191;-62
2021/04/14 15:07:34;;;;;;;2.87;1.30;;;;;;;;;;4983463;28;20205;-61
2021/04/14 15:10:00;;;;;;;4.00;1.23;;;;;;;;;;4985529;28;20234;-63
2021/04/14 15:12:27;;;;;;;2.17;1.03;;;;;;;;;;4983028;28;20195;-63
2021/04/14 15:14:56;;;;;;;0.17;0.17;;;;;;;;;;4983749;28;20197;-62
2021/04/14 15:17:23;;;;;;;0.87;0.60;;;;;;;;;;4983742;28;20597;-62
2021/04/14 15:19:50;;;;;;;2.90;1.50;;;;;;;;;;4983382;28;20205;-61
2021/04/14 15:22:21;;;;;;;7.47;2.87;;;;;;;;;;4987116;28;20193;-61
2021/04/14 15:24:48;;;;;;;0.40;0.40;;;;;;;;;;4998979;28;20185;-61
2021/04/14 15:27:14;;;;;;;2.00;1.80;;;;;;;;;;4997000;28;20197;-55
2021/04/14 15:29:45;;;;;;;4.07;1.57;;;;;;;;;;4985510;28;20192;-63
2021/04/14 15:32:11;;;;;;;0.83;0.83;;;;;;;;;;4993956;28;20213;-64
2021/04/14 15:34:38;;;;;;;1.90;1.80;;;;;;;;;;4990918;28;20193;-63
2021/04/14 15:37:05;;;;;;;1.37;1.17;;;;;;;;;;4993707;28;20213;-63
2021/04/14 15:39:31;;;;;;;2.20;2.10;;;;;;;;;;4988073;28;20303;-63
2021/04/14 15:41:58;;;;;;;3.77;1.93;;;;;;;;;;4992055;28;20185;-62
2021/04/14 15:44:25;;;;;;;0.53;0.53;;;;;;;;;;4992122;28;20426;-63
2021/04/14 15:46:51;;;;;;;0.47;0.47;;;;;;;;;;4993975;28;20331;-53
2021/04/14 15:49:21;;;;;;;2.07;1.87;;;;;;;;;;4991228;28;20188;-50
2021/04/14 15:51:48;;;;;;;2.10;1.97;;;;;;;;;;4985802;28;20217;-53
2021/04/14 15:54:14;;;;;;;2.93;1.20;;;;;;;;;;4991615;28;20654;-53
2021/04/14 15:56:43;;;;;;;7.10;4.10;;;;;;;;;;4991841;28;20191;-55
2021/04/14 15:59:13;;;;;;;2.27;1.57;;;;;;;;;;4990103;28;20273;-54
2021/04/14 16:01:44;;;;;;;1.90;1.37;;;;;;;;;;4987223;28;20829;-55
2021/04/14 16:04:12;;;;;;;0.93;0.93;;;;;;;;;;4994425;28;20201;-52
2021/04/14 16:06:40;;;;;;;0.73;0.63;;;;;;;;;;4986492;28;20525;-51
2021/04/14 16:09:07;;;;;;;1.77;1.67;;;;;;;;;;4990681;28;20195;-54
2021/04/14 16:11:34;;;;;;;3.73;1.97;;;;;;;;;;4999133;28;20322;-53
2021/04/14 16:14:00;;;;;;;0.60;0.33;;;;;;;;;;4984013;28;20194;-54
2021/04/14 16:16:27;;;;;;;1.50;0.93;;;;;;;;;;4992535;28;20199;-62
2021/04/14 16:18:57;;;;;;;1.20;1.10;;;;;;;;;;4999304;28;20224;-61
2021/04/14 16:21:24;;;;;;;0.77;0.73;;;;;;;;;;4997826;28;20617;-62
2021/04/14 16:23:51;;;;;;;1.30;1.13;;;;;;;;;;4989847;28;20182;-62
2021/04/14 16:26:17;;;;;;;1.03;0.50;;;;;;;;;;4993007;28;20493;-61
2021/04/14 16:28:46;;;;;;;1.83;1.50;;;;;;;;;;4990196;28;20198;-62
2021/04/14 16:31:13;;;;;;;1.90;1.23;;;;;;;;;;4989988;28;20193;-62
2021/04/14 16:33:40;;;;;;;1.70;1.27;;;;;;;;;;4988549;28;20519;-61
2021/04/14 16:36:07;;;;;;;2.97;1.97;;;;;;;;;;4987447;28;20209;-52
2021/04/14 16:38:36;;;;;;;1.10;1.07;;;;;;;;;;4987431;28;20212;-54
2021/04/14 16:41:08;;;;;;;1.47;1.37;;;;;;;;;;4992248;28;20537;-55
2021/04/14 16:43:35;;;;;;;0.97;0.93;;;;;;;;;;4987363;28;20522;-52
2021/04/14 16:46:03;;;;;;;1.10;1.10;;;;;;;;;;4997428;28;20372;-55
2021/04/14 16:48:29;;;;;;;6.03;5.17;;;;;;;;;;4996503;28;20627;-54
2021/04/14 16:50:56;;;;;;;3.23;2.97;;;;;;;;;;4994700;28;20640;-55
2021/04/14 16:53:27;;;;;;;0.70;0.70;;;;;;;;;;4988658;28;21010;-54
2021/04/14 16:55:54;;;;;;;3.47;2.80;;;;;;;;;;4989464;28;20193;-51
2021/04/14 16:58:20;;;;;;;2.40;2.20;;;;;;;;;;4986848;28;20215;-55
2021/04/14 17:00:47;;;;;;;12.77;1.60;;;;;;;;;;4993828;28;20200;-54
2021/04/14 17:03:13;;;;;;;0.37;0.37;;;;;;;;;;4993969;28;20182;-53
2021/04/14 17:05:40;;;;;;;0.33;0.33;;;;;;;;;;4989098;28;20187;-55
2021/04/14 17:08:08;;;;;;;0.63;0.63;;;;;;;;;;4984213;28;20240;-53
2021/04/14 17:10:35;;;;;;;3.70;2.30;;;;;;;;;;4983988;28;20915;-55
2021/04/14 17:13:10;;;;;;;1.40;1.30;;;;;;;;;;4992121;28;20201;-56
2021/04/14 17:15:37;;;;;;;2.40;1.43;;;;;;;;;;4996131;28;20197;-53
2021/04/14 17:18:03;;;;;;;3.57;2.60;;;;;;;;;;4996845;28;20632;-55
2021/04/14 17:20:30;;;;;;;3.07;1.27;;;;;;;;;;4986623;28;20583;-54
2021/04/14 17:22:56;;;;;;;3.07;2.87;;;;;;;;;;4988769;28;20189;-55
2021/04/14 17:25:23;;;;;;;2.53;1.23;;;;;;;;;;4985990;28;20182;-54
2021/04/14 17:27:50;;;;;;;1.30;1.07;;;;;;;;;;4989613;28;20183;-54
2021/04/14 17:30:21;;;;;;;3.47;1.97;;;;;;;;;;4987681;28;20201;-55
2021/04/14 17:32:47;;;;;;;6.30;4.07;;;;;;;;;;4971425;28;20204;-54
2021/04/14 17:35:14;;;;;;;0.43;0.43;;;;;;;;;;4991107;28;20183;-55
2021/04/14 17:37:41;;;;;;;4.43;2.10;;;;;;;;;;4994572;28;20983;-62
2021/04/14 17:40:08;;;;;;;2.17;1.97;;;;;;;;;;4986537;28;20192;-63
2021/04/14 17:42:34;;;;;;;1.90;1.33;;;;;;;;;;4993891;28;20193;-62
2021/04/14 17:45:01;;;;;;;4.33;1.90;;;;;;;;;;4995968;28;20196;-63
2021/04/14 17:47:28;;;;;;;0.07;0.07;;;;;;;;;;4989508;28;20198;-62
2021/04/14 17:49:54;;;;;;;0.90;0.43;;;;;;;;;;4993510;28;20198;-52
2021/04/14 17:52:21;;;;;;;6.97;2.63;;;;;;;;;;4994695;28;20420;-54
2021/04/14 17:54:48;;;;;;;3.17;2.37;;;;;;;;;;4989534;28;20204;-53
2021/04/14 17:57:17;;;;;;;2.03;1.57;;;;;;;;;;4982574;28;20217;-54
2021/04/14 17:59:44;;;;;;;15.67;14.07;;;;;;;;;;4981895;28;20184;-52
2021/04/14 18:02:10;;;;;;;3.10;2.33;;;;;;;;;;4985092;28;20185;-53
2021/04/14 18:04:37;;;;;;;0.70;0.70;;;;;;;;;;4992697;28;20277;-53
2021/04/14 18:07:04;;;;;;;4.73;2.23;;;;;;;;;;4990755;28;20197;-49
2021/04/14 18:09:33;;;;;;;0.77;0.77;;;;;;;;;;4989676;28;20466;-62
2021/04/14 18:12:00;;;;;;;8.60;2.97;;;;;;;;;;4986055;28;20243;-63
2021/04/14 18:14:29;;;;;;;0.03;0.03;;;;;;;;;;4992102;28;20237;-61
2021/04/14 18:16:56;;;;;;;1.43;1.17;;;;;;;;;;4988822;28;20610;-62
2021/04/14 18:19:23;;;;;;;1.47;1.20;;;;;;;;;;4992605;28;20221;-61
2021/04/14 18:21:50;;;;;;;5.60;2.63;;;;;;;;;;4986484;28;20522;-61
2021/04/14 18:24:16;;;;;;;3.30;1.73;;;;;;;;;;5000426;28;20189;-61
2021/04/14 18:26:43;;;;;;;0.77;0.50;;;;;;;;;;4993813;28;20203;-61
2021/04/14 18:29:09;;;;;;;5.60;3.63;;;;;;;;;;4989274;28;20901;-61
2021/04/14 18:31:39;;;;;;;1.90;1.67;;;;;;;;;;4992991;28;20487;-60
2021/04/14 18:34:10;;;;;;;2.33;1.47;;;;;;;;;;4995690;28;20302;-60
2021/04/14 18:36:37;;;;;;;0.30;0.30;;;;;;;;;;4993170;28;20195;-61
2021/04/14 18:39:10;;;;;;;5.73;3.10;;;;;;;;;;5006050;28;20210;-61
2021/04/14 18:41:37;;;;;;;5.03;3.23;;;;;;;;;;4990195;28;20205;-61
2021/04/14 18:44:04;;;;;;;2.27;1.70;;;;;;;;;;4993536;28;20244;-61
2021/04/14 18:46:31;;;;;;;4.20;1.97;;;;;;;;;;4996430;28;20205;-61
2021/04/14 18:48:58;;;;;;;4.50;2.60;;;;;;;;;;5003020;28;20515;-61
2021/04/14 18:51:25;;;;;;;2.07;1.30;;;;;;;;;;4973716;28;20459;-61
2021/04/14 18:53:52;;;;;;;4.70;4.30;;;;;;;;;;4990466;28;20600;-61
2021/04/14 18:56:23;;;;;;;2.07;1.73;;;;;;;;;;4994148;28;20201;-61
2021/04/14 18:58:50;;;;;;;1.37;1.27;;;;;;;;;;4999515;28;20232;-62
2021/04/14 19:01:17;;;;;;;0.27;0.27;;;;;;;;;;4994582;28;20197;-61
2021/04/14 19:03:47;;;;;;;1.00;0.93;;;;;;;;;;5003087;28;20272;-62
2021/04/14 19:06:14;;;;;;;1.17;1.07;;;;;;;;;;5003356;28;20281;-61
2021/04/14 19:08:46;;;;;;;1.60;0.77;;;;;;;;;;4994567;28;20617;-61
2021/04/14 19:11:13;;;;;;;7.30;2.63;;;;;;;;;;4998566;28;20245;-61
2021/04/14 19:13:39;;;;;;;6.33;1.90;;;;;;;;;;4987517;28;20199;-61
2021/04/14 19:16:06;;;;;;;0.20;0.20;;;;;;;;;;4990390;28;20193;-60
2021/04/14 19:18:34;;;;;;;1.33;1.23;;;;;;;;;;4994778;28;20908;-61
2021/04/14 19:23:46;;;;;;;10.80;1.37;;;;;;;;;;4972302;23;20711;-61
2021/04/14 19:26:13;;;;;;;1.47;1.37;;;;;;;;;;4968119;28;20326;-60
2021/04/14 19:28:41;;;;;;;9.63;2.00;;;;;;;;;;4964875;28;20588;-61
2021/04/14 19:31:08;;;;;;;7.07;3.43;;;;;;;;;;4966457;28;20652;-60
2021/04/14 19:33:34;;;;;;;6.10;1.63;;;;;;;;;;4962090;28;20187;-60
2021/04/14 19:36:01;;;;;;;5.30;1.80;;;;;;;;;;4954054;28;20394;-60
2021/04/14 19:38:28;;;;;;;2.63;1.07;;;;;;;;;;4953311;28;20210;-61
2021/04/14 19:41:02;;;;;;;0.40;0.40;;;;;;;;;;4953211;28;20187;-61
2021/04/14 19:43:29;;;;;;;0.63;0.63;;;;;;;;;;4958362;28;20194;-61
2021/04/14 19:45:58;;;;;;;0.50;0.27;;;;;;;;;;4954097;28;20179;-61
2021/04/14 19:48:25;;;;;;;0.90;0.90;;;;;;;;;;4959797;28;20218;-60
2021/04/14 19:50:51;;;;;;;0.67;0.60;;;;;;;;;;4959583;28;20272;-59
2021/04/14 19:53:19;;;;;;;1.77;1.67;;;;;;;;;;4958787;28;20179;-60
2021/04/14 19:55:46;;;;;;;2.97;0.80;;;;;;;;;;4962914;28;20985;-60
2021/04/14 19:58:17;;;;;;;1.87;1.60;;;;;;;;;;4959496;28;20209;-60
2021/04/14 20:00:56;;;;;;;3.77;2.77;;;;;;;;;;4947601;28;20184;-60
2021/04/14 20:03:22;;;;;;;0.67;0.67;;;;;;;;;;4955730;28;20190;-61
2021/04/14 20:05:49;;;;;;;2.27;1.17;;;;;;;;;;4960593;28;20548;-61
2021/04/14 20:08:19;;;;;;;1.10;1.07;;;;;;;;;;4961482;28;20330;-60
2021/04/14 20:10:50;;;;;;;0.63;0.63;;;;;;;;;;4953564;28;20222;-60
2021/04/14 20:13:17;;;;;;;0.67;0.67;;;;;;;;;;4955892;28;20554;-60
2021/04/14 20:15:46;;;;;;;1.17;0.57;;;;;;;;;;4957799;28;20273;-60
2021/04/14 20:18:13;;;;;;;0.30;0.30;;;;;;;;;;4959607;28;20214;-60
2021/04/14 20:20:39;;;;;;;9.27;1.37;;;;;;;;;;4960997;28;20637;-60
2021/04/14 20:23:06;;;;;;;0.20;0.20;;;;;;;;;;4958126;28;20971;-60
2021/04/14 20:25:34;;;;;;;1.60;1.00;;;;;;;;;;4954625;28;20190;-60
2021/04/14 20:28:04;;;;;;;2.53;1.63;;;;;;;;;;4954937;28;20597;-60
2021/04/14 20:30:31;;;;;;;2.90;1.37;;;;;;;;;;4956255;28;21124;-59
2021/04/14 20:33:02;;;;;;;0.67;0.67;;;;;;;;;;4955005;28;20191;-60
2021/04/14 20:35:31;;;;;;;0.53;0.43;;;;;;;;;;4956669;28;20237;-60
2021/04/14 20:38:01;;;;;;;0.70;0.60;;;;;;;;;;4956342;28;20191;-60
2021/04/14 20:40:30;;;;;;;1.87;1.30;;;;;;;;;;4952009;28;20190;-60
2021/04/14 20:42:56;;;;;;;8.40;1.80;;;;;;;;;;4948529;28;20198;-59
2021/04/14 20:45:23;;;;;;;2.90;0.97;;;;;;;;;;4957783;28;20249;-60
2021/04/14 20:47:52;;;;;;;0.83;0.83;;;;;;;;;;4954171;28;20182;-61
2021/04/14 20:50:21;;;;;;;0.90;0.90;;;;;;;;;;4959692;28;20194;-60
2021/04/14 20:52:48;;;;;;;1.17;1.10;;;;;;;;;;4948160;28;20191;-60
2021/04/14 20:55:17;;;;;;;3.87;1.50;;;;;;;;;;4954429;28;20182;-60
2021/04/14 20:57:44;;;;;;;0.00;0.00;;;;;;;;;;4957770;28;20194;-60
2021/04/14 21:00:11;;;;;;;0.13;0.13;;;;;;;;;;4959630;28;20859;-60
2021/04/14 21:02:40;;;;;;;17.20;2.37;;;;;;;;;;4958492;28;20836;-60
2021/04/14 21:05:08;;;;;;;0.10;0.10;;;;;;;;;;4957706;28;20985;-61
2021/04/14 21:07:34;;;;;;;5.13;0.93;;;;;;;;;;4958102;28;20183;-60
2021/04/14 21:10:01;;;;;;;1.37;1.37;;;;;;;;;;4953505;28;20461;-60
2021/04/14 21:12:28;;;;;;;3.30;1.13;;;;;;;;;;4971115;28;20186;-60
2021/04/14 21:14:57;;;;;;;2.53;1.63;;;;;;;;;;4952387;28;20182;-60
2021/04/14 21:17:26;;;;;;;2.40;2.17;;;;;;;;;;4959953;28;20269;-60
2021/04/14 21:19:52;;;;;;;1.13;1.13;;;;;;;;;;4959800;28;20236;-60
2021/04/14 21:22:19;;;;;;;2.30;1.57;;;;;;;;;;4957784;28;20345;-59
2021/04/14 21:24:46;;;;;;;2.20;1.43;;;;;;;;;;4957313;28;20670;-60
2021/04/14 21:27:20;;;;;;;4.90;1.93;;;;;;;;;;4957121;28;20259;-60
2021/04/14 21:29:56;;;;;;;0.30;0.30;;;;;;;;;;4957500;28;20453;-59
2021/04/14 21:32:26;;;;;;;2.83;1.33;;;;;;;;;;4955943;28;20185;-59
2021/04/14 21:34:52;;;;;;;0.60;0.60;;;;;;;;;;4956181;28;20203;-60
2021/04/14 21:37:21;;;;;;;0.30;0.30;;;;;;;;;;4957944;28;20186;-59
2021/04/14 21:39:48;;;;;;;0.10;0.10;;;;;;;;;;4945197;28;20270;-60
2021/04/14 21:42:15;;;;;;;1.80;1.03;;;;;;;;;;4949463;28;20265;-60
2021/04/14 21:44:41;;;;;;;0.80;0.60;;;;;;;;;;4955784;28;20194;-60
2021/04/14 21:47:10;;;;;;;0.00;0.00;;;;;;;;;;4953503;28;20178;-60
2021/04/14 21:49:39;;;;;;;0.60;0.60;;;;;;;;;;4954888;28;20203;-60
2021/04/14 21:52:06;;;;;;;0.07;0.07;;;;;;;;;;4955222;28;20600;-60
2021/04/14 21:54:34;;;;;;;0.20;0.20;;;;;;;;;;4956236;28;20219;-60
2021/04/14 21:57:06;;;;;;;0.30;0.30;;;;;;;;;;4960175;28;20186;-60
2021/04/14 21:59:35;;;;;;;1.43;1.33;;;;;;;;;;4956856;28;20213;-60
2021/04/14 22:02:01;;;;;;;0.00;0.00;;;;;;;;;;4961506;28;20981;-60
2021/04/14 22:04:28;;;;;;;0.73;0.73;;;;;;;;;;4954715;28;20180;-60
2021/04/14 22:06:54;;;;;;;1.27;1.10;;;;;;;;;;4955617;28;20640;-60
2021/04/14 22:09:21;;;;;;;2.73;0.47;;;;;;;;;;4964082;28;20186;-60
2021/04/14 22:11:48;;;;;;;9.20;2.43;;;;;;;;;;4962949;28;20183;-59
2021/04/14 22:14:14;;;;;;;0.93;0.93;;;;;;;;;;4960186;28;20274;-59
2021/04/14 22:16:41;;;;;;;1.00;0.83;;;;;;;;;;4964994;28;20632;-60
2021/04/14 22:19:08;;;;;;;1.87;1.77;;;;;;;;;;4959569;28;20234;-60
2021/04/14 22:21:35;;;;;;;3.10;0.87;;;;;;;;;;4966994;28;20191;-60
2021/04/14 22:24:03;;;;;;;2.23;1.20;;;;;;;;;;4963675;28;20345;-60
2021/04/14 22:26:29;;;;;;;0.00;0.00;;;;;;;;;;4958645;28;20190;-60
2021/04/14 22:28:58;;;;;;;3.80;2.17;;;;;;;;;;4969100;28;20182;-60
2021/04/14 22:31:27;;;;;;;4.53;1.70;;;;;;;;;;4965542;28;20186;-60
2021/04/14 22:33:54;;;;;;;0.20;0.20;;;;;;;;;;4959339;28;20183;-60
2021/04/14 22:36:20;;;;;;;2.10;1.53;;;;;;;;;;4964691;28;20694;-60
2021/04/14 22:38:48;;;;;;;0.10;0.10;;;;;;;;;;4961599;28;20214;-60
2021/04/14 22:41:19;;;;;;;42.27;6.90;;;;;;;;;;4956203;28;20183;-59
2021/04/14 22:43:45;;;;;;;0.53;0.43;;;;;;;;;;4962721;28;20208;-60
2021/04/14 22:46:13;;;;;;;0.70;0.70;;;;;;;;;;4958742;28;20944;-59
2021/04/14 22:48:40;;;;;;;3.47;2.30;;;;;;;;;;4957099;28;20189;-59
2021/04/14 22:51:07;;;;;;;0.00;0.00;;;;;;;;;;4965194;28;20781;-60
2021/04/14 22:53:34;;;;;;;5.07;3.50;;;;;;;;;;4957419;28;20186;-59
2021/04/14 22:56:04;;;;;;;0.20;0.10;;;;;;;;;;4957181;28;20198;-59
2021/04/14 22:58:33;;;;;;;0.10;0.10;;;;;;;;;;4959613;28;20682;-59
2021/04/14 23:01:00;;;;;;;2.83;2.17;;;;;;;;;;4961377;28;20818;-59
2021/04/14 23:03:28;;;;;;;0.10;0.10;;;;;;;;;;4962669;28;20261;-59
2021/04/14 23:05:56;;;;;;;0.83;0.77;;;;;;;;;;4959358;28;20189;-59
2021/04/14 23:08:26;;;;;;;0.37;0.37;;;;;;;;;;4957956;28;20181;-59
2021/04/14 23:10:53;;;;;;;11.90;3.03;;;;;;;;;;4960005;28;20288;-60
2021/04/14 23:13:20;;;;;;;0.77;0.73;;;;;;;;;;4957721;28;20676;-60
2021/04/14 23:15:47;;;;;;;0.27;0.27;;;;;;;;;;4959872;28;20189;-59
2021/04/14 23:18:13;;;;;;;9.13;1.83;;;;;;;;;;4960562;28;20194;-60
2021/04/14 23:20:41;;;;;;;0.57;0.57;;;;;;;;;;4952649;28;20256;-59
2021/04/14 23:23:07;;;;;;;0.40;0.40;;;;;;;;;;4953203;28;20230;-59
2021/04/14 23:25:37;;;;;;;1.27;1.00;;;;;;;;;;4954800;28;20277;-59
2021/04/14 23:28:06;;;;;;;3.30;1.60;;;;;;;;;;4957718;28;20185;-59
2021/04/14 23:30:35;;;;;;;2.73;1.17;;;;;;;;;;4956941;28;20201;-60
2021/04/14 23:33:02;;;;;;;0.03;0.03;;;;;;;;;;4959829;28;20201;-59
2021/04/14 23:35:29;;;;;;;7.40;2.03;;;;;;;;;;4957643;28;20193;-61
2021/04/14 23:37:55;;;;;;;4.83;2.13;;;;;;;;;;4959972;28;20208;-59
2021/04/14 23:40:27;;;;;;;6.33;1.23;;;;;;;;;;4958550;28;20275;-59
2021/04/14 23:42:54;;;;;;;0.93;0.47;;;;;;;;;;4960648;28;20193;-59
2021/04/14 23:45:23;;;;;;;0.10;0.10;;;;;;;;;;4959317;28;20511;-59
2021/04/14 23:47:49;;;;;;;4.53;1.73;;;;;;;;;;4958900;28;20182;-58
2021/04/14 23:50:18;;;;;;;0.40;0.40;;;;;;;;;;4960495;28;20178;-59
2021/04/14 23:52:45;;;;;;;4.70;0.63;;;;;;;;;;4952462;28;20201;-60
2021/04/14 23:55:13;;;;;;;1.20;0.67;;;;;;;;;;4957650;28;20199;-59
2021/04/14 23:57:39;;;;;;;1.37;0.90;;;;;;;;;;4958038;28;20245;-58
